sensor_id;sensor_type;location;lat;lon;timestamp;pressure;altitude;pressure_sealevel;temperature;humidity
11049;BME280;5577;42.706;23.160;2023-05-08T00:00:58;94317.47;;;10.34;100.00
11049;BME280;5577;42.706;23.160;2023-05-08T00:03:42;94318.66;;;10.21;100.00
11049;BME280;5577;42.706;23.160;2023-05-08T00:06:26;94318.16;;;10.31;100.00
11049;BME280;5577;42.706;23.160;2023-05-08T00:09:10;94324.22;;;10.32;100.00
11049;BME280;5577;42.706;23.160;2023-05-08T00:11:54;94328.38;;;10.17;100.00
11049;BME280;5577;42.706;23.160;2023-05-08T00:14:38;94287.81;;;9.86;100.00
11049;BME280;5577;42.706;23.160;2023-05-08T00:17:22;94331.59;;;10.11;100.00
11049;BME280;5577;42.706;23.160;2023-05-08T00:20:06;94334.69;;;10.13;100.00
11049;BME280;5577;42.706;23.160;2023-05-08T00:22:51;94338.22;;;10.05;100.00
11049;BME280;5577;42.706;23.160;2023-05-08T00:25:35;94335.56;;;10.05;100.00
11049;BME280;5577;42.706;23.160;2023-05-08T00:28:19;94338.00;;;10.10;100.00
11049;BME280;5577;42.706;23.160;2023-05-08T00:31:03;94349.25;;;10.07;100.00
11049;BME280;5577;42.706;23.160;2023-05-08T00:33:47;94342.09;;;9.95;100.00
11049;BME280;5577;42.706;23.160;2023-05-08T00:36:31;94339.69;;;9.90;100.00
11049;BME280;5577;42.706;23.160;2023-05-08T00:39:15;94358.06;;;9.99;100.00
11049;BME280;5577;42.706;23.160;2023-05-08T00:41:59;94340.09;;;9.92;100.00
11049;BME280;5577;42.706;23.160;2023-05-08T00:44:43;94347.38;;;9.95;100.00
11049;BME280;5577;42.706;23.160;2023-05-08T00:47:29;94336.19;;;9.86;100.00
11049;BME280;5577;42.706;23.160;2023-05-08T00:50:13;94345.25;;;9.73;100.00
11049;BME280;5577;42.706;23.160;2023-05-08T00:52:57;94331.03;;;9.66;100.00
11049;BME280;5577;42.706;23.160;2023-05-08T00:55:42;94346.69;;;9.71;100.00
11049;BME280;5577;42.706;23.160;2023-05-08T00:58:27;94340.28;;;9.72;100.00
11049;BME280;5577;42.706;23.160;2023-05-08T01:01:11;94349.09;;;9.76;100.00
11049;BME280;5577;42.706;23.160;2023-05-08T01:03:55;94346.78;;;9.74;100.00
11049;BME280;5577;42.706;23.160;2023-05-08T01:06:40;94358.78;;;9.72;100.00
11049;BME280;5577;42.706;23.160;2023-05-08T01:09:24;94361.22;;;9.77;100.00
11049;BME280;5577;42.706;23.160;2023-05-08T01:15:23;94342.16;;;9.71;100.00
11049;BME280;5577;42.706;23.160;2023-05-08T01:18:16;94354.25;;;9.84;100.00
11049;BME280;5577;42.706;23.160;2023-05-08T01:34:30;94350.38;;;9.42;100.00
11049;BME280;5577;42.706;23.160;2023-05-08T01:37:20;94343.22;;;9.43;100.00
11049;BME280;5577;42.706;23.160;2023-05-08T01:40:15;94353.91;;;9.34;100.00
11049;BME280;5577;42.706;23.160;2023-05-08T01:43:13;94344.13;;;9.35;100.00
11049;BME280;5577;42.706;23.160;2023-05-08T01:46:04;94342.13;;;9.32;100.00
11049;BME280;5577;42.706;23.160;2023-05-08T01:49:11;94346.53;;;9.28;100.00
11049;BME280;5577;42.706;23.160;2023-05-08T01:51:59;94344.78;;;9.32;100.00
11049;BME280;5577;42.706;23.160;2023-05-08T01:54:49;94328.91;;;9.20;100.00
11049;BME280;5577;42.706;23.160;2023-05-08T01:57:45;94314.75;;;9.12;100.00
11049;BME280;5577;42.706;23.160;2023-05-08T02:00:29;94329.47;;;9.25;100.00
11049;BME280;5577;42.706;23.160;2023-05-08T02:03:15;94349.72;;;9.33;100.00
11049;BME280;5577;42.706;23.160;2023-05-08T02:06:01;94340.81;;;9.26;100.00
11049;BME280;5577;42.706;23.160;2023-05-08T02:08:46;94346.19;;;9.29;100.00
11049;BME280;5577;42.706;23.160;2023-05-08T02:11:31;94288.78;;;8.90;100.00
11049;BME280;5577;42.706;23.160;2023-05-08T02:14:18;94337.19;;;9.30;100.00
11049;BME280;5577;42.706;23.160;2023-05-08T02:17:03;94343.13;;;9.27;100.00
11049;BME280;5577;42.706;23.160;2023-05-08T02:19:50;94344.66;;;9.28;100.00
11049;BME280;5577;42.706;23.160;2023-05-08T02:22:35;94350.16;;;9.23;100.00
11049;BME280;5577;42.706;23.160;2023-05-08T02:25:20;94348.72;;;9.26;100.00
11049;BME280;5577;42.706;23.160;2023-05-08T02:28:05;94342.25;;;9.11;100.00
11049;BME280;5577;42.706;23.160;2023-05-08T02:30:50;94355.44;;;9.11;100.00
11049;BME280;5577;42.706;23.160;2023-05-08T02:33:37;94345.31;;;9.01;100.00
11049;BME280;5577;42.706;23.160;2023-05-08T02:36:22;94348.97;;;9.21;100.00
11049;BME280;5577;42.706;23.160;2023-05-08T02:39:10;94351.03;;;9.15;100.00
11049;BME280;5577;42.706;23.160;2023-05-08T02:41:57;94346.75;;;9.23;100.00
11049;BME280;5577;42.706;23.160;2023-05-08T02:44:41;94359.31;;;9.26;100.00
11049;BME280;5577;42.706;23.160;2023-05-08T02:47:36;94299.13;;;8.83;100.00
11049;BME280;5577;42.706;23.160;2023-05-08T02:50:31;94353.69;;;9.27;100.00
11049;BME280;5577;42.706;23.160;2023-05-08T02:53:25;94345.63;;;9.24;100.00
11049;BME280;5577;42.706;23.160;2023-05-08T02:56:24;94351.50;;;9.17;100.00
11049;BME280;5577;42.706;23.160;2023-05-08T02:59:16;94356.22;;;9.12;100.00
11049;BME280;5577;42.706;23.160;2023-05-08T03:04:59;94346.13;;;9.14;100.00
11049;BME280;5577;42.706;23.160;2023-05-08T03:07:49;94342.47;;;9.18;100.00
11049;BME280;5577;42.706;23.160;2023-05-08T03:10:35;94340.94;;;9.17;100.00
11049;BME280;5577;42.706;23.160;2023-05-08T03:13:21;94348.84;;;9.17;100.00
11049;BME280;5577;42.706;23.160;2023-05-08T03:16:10;94353.56;;;9.24;100.00
11049;BME280;5577;42.706;23.160;2023-05-08T03:19:05;94360.84;;;9.27;100.00
11049;BME280;5577;42.706;23.160;2023-05-08T03:21:50;94359.06;;;9.31;100.00
11049;BME280;5577;42.706;23.160;2023-05-08T03:24:37;94331.88;;;9.18;100.00
11049;BME280;5577;42.706;23.160;2023-05-08T03:27:23;94315.41;;;9.09;100.00
11049;BME280;5577;42.706;23.160;2023-05-08T03:30:09;94363.16;;;9.28;100.00
11049;BME280;5577;42.706;23.160;2023-05-08T03:32:57;94356.75;;;9.29;100.00
11049;BME280;5577;42.706;23.160;2023-05-08T03:35:43;94363.34;;;9.35;100.00
11049;BME280;5577;42.706;23.160;2023-05-08T03:38:28;94364.56;;;9.38;100.00
11049;BME280;5577;42.706;23.160;2023-05-08T03:41:12;94356.53;;;9.46;100.00
11049;BME280;5577;42.706;23.160;2023-05-08T03:43:57;94335.16;;;9.39;100.00
11049;BME280;5577;42.706;23.160;2023-05-08T03:46:41;94361.34;;;9.68;100.00
11049;BME280;5577;42.706;23.160;2023-05-08T03:49:28;94364.72;;;9.81;100.00
11049;BME280;5577;42.706;23.160;2023-05-08T03:52:13;94367.78;;;9.95;100.00
11049;BME280;5577;42.706;23.160;2023-05-08T03:54:57;94370.19;;;10.12;100.00
11049;BME280;5577;42.706;23.160;2023-05-08T03:57:52;94352.66;;;10.07;100.00
11049;BME280;5577;42.706;23.160;2023-05-08T04:04:00;94378.63;;;10.45;100.00
11049;BME280;5577;42.706;23.160;2023-05-08T04:07:05;94377.47;;;10.58;100.00
11049;BME280;5577;42.706;23.160;2023-05-08T04:10:04;94374.22;;;10.64;100.00
11049;BME280;5577;42.706;23.160;2023-05-08T04:13:11;94381.75;;;10.78;100.00
11049;BME280;5577;42.706;23.160;2023-05-08T04:16:06;94372.88;;;10.86;100.00
11049;BME280;5577;42.706;23.160;2023-05-08T04:18:57;94378.53;;;10.84;100.00
11049;BME280;5577;42.706;23.160;2023-05-08T04:21:44;94375.28;;;10.91;100.00
11049;BME280;5577;42.706;23.160;2023-05-08T04:24:33;94369.38;;;10.97;100.00
11049;BME280;5577;42.706;23.160;2023-05-08T04:27:18;94378.53;;;11.00;100.00
11049;BME280;5577;42.706;23.160;2023-05-08T04:30:02;94368.69;;;11.16;100.00
11049;BME280;5577;42.706;23.160;2023-05-08T04:32:47;94375.94;;;11.34;100.00
11049;BME280;5577;42.706;23.160;2023-05-08T04:35:32;94386.88;;;11.48;100.00
11049;BME280;5577;42.706;23.160;2023-05-08T04:38:16;94376.09;;;11.57;100.00
11049;BME280;5577;42.706;23.160;2023-05-08T04:41:00;94375.91;;;11.66;100.00
11049;BME280;5577;42.706;23.160;2023-05-08T04:43:44;94373.09;;;11.74;100.00
11049;BME280;5577;42.706;23.160;2023-05-08T04:46:28;94373.88;;;11.94;100.00
11049;BME280;5577;42.706;23.160;2023-05-08T04:49:12;94373.69;;;12.02;100.00
11049;BME280;5577;42.706;23.160;2023-05-08T04:51:56;94370.88;;;12.14;100.00
11049;BME280;5577;42.706;23.160;2023-05-08T04:54:40;94344.00;;;12.16;100.00
11049;BME280;5577;42.706;23.160;2023-05-08T04:57:24;94354.38;;;12.43;100.00
11049;BME280;5577;42.706;23.160;2023-05-08T05:00:09;94353.81;;;12.53;100.00
11049;BME280;5577;42.706;23.160;2023-05-08T05:02:53;94351.34;;;12.64;100.00
11049;BME280;5577;42.706;23.160;2023-05-08T05:05:37;94346.63;;;12.76;100.00
11049;BME280;5577;42.706;23.160;2023-05-08T05:08:20;94344.84;;;12.84;100.00
11049;BME280;5577;42.706;23.160;2023-05-08T05:11:04;94337.00;;;12.91;100.00
11049;BME280;5577;42.706;23.160;2023-05-08T05:13:49;94336.63;;;13.11;100.00
11049;BME280;5577;42.706;23.160;2023-05-08T05:16:33;94334.47;;;13.20;100.00
11049;BME280;5577;42.706;23.160;2023-05-08T05:19:17;94322.09;;;13.31;100.00
11049;BME280;5577;42.706;23.160;2023-05-08T05:22:01;94342.59;;;13.53;100.00
11049;BME280;5577;42.706;23.160;2023-05-08T05:24:45;94334.66;;;13.57;100.00
11049;BME280;5577;42.706;23.160;2023-05-08T05:27:30;94333.22;;;13.63;100.00
11049;BME280;5577;42.706;23.160;2023-05-08T05:30:14;94336.06;;;13.77;100.00
11049;BME280;5577;42.706;23.160;2023-05-08T05:32:58;94343.69;;;13.78;100.00
11049;BME280;5577;42.706;23.160;2023-05-08T05:35:42;94335.75;;;13.82;100.00
11049;BME280;5577;42.706;23.160;2023-05-08T05:38:26;94336.19;;;13.87;100.00
11049;BME280;5577;42.706;23.160;2023-05-08T05:41:11;94339.38;;;13.96;100.00
11049;BME280;5577;42.706;23.160;2023-05-08T05:43:55;94339.78;;;13.98;100.00
11049;BME280;5577;42.706;23.160;2023-05-08T05:46:38;94342.91;;;14.07;100.00
11049;BME280;5577;42.706;23.160;2023-05-08T05:49:23;94334.31;;;14.17;100.00
11049;BME280;5577;42.706;23.160;2023-05-08T05:52:07;94331.06;;;14.31;100.00
11049;BME280;5577;42.706;23.160;2023-05-08T05:54:51;94320.44;;;14.34;100.00
11049;BME280;5577;42.706;23.160;2023-05-08T05:57:35;94322.28;;;14.64;100.00
11049;BME280;5577;42.706;23.160;2023-05-08T06:00:20;94324.34;;;14.81;100.00
11049;BME280;5577;42.706;23.160;2023-05-08T06:03:04;94312.59;;;14.89;100.00
11049;BME280;5577;42.706;23.160;2023-05-08T06:05:48;94321.63;;;15.17;100.00
11049;BME280;5577;42.706;23.160;2023-05-08T06:08:32;94314.41;;;15.21;100.00
11049;BME280;5577;42.706;23.160;2023-05-08T06:11:16;94314.03;;;15.26;100.00
11049;BME280;5577;42.706;23.160;2023-05-08T06:14:00;94315.22;;;15.29;100.00
11049;BME280;5577;42.706;23.160;2023-05-08T06:16:44;94312.09;;;15.16;100.00
11049;BME280;5577;42.706;23.160;2023-05-08T06:19:28;94315.97;;;15.26;100.00
11049;BME280;5577;42.706;23.160;2023-05-08T06:22:13;94317.06;;;15.18;100.00
11049;BME280;5577;42.706;23.160;2023-05-08T06:24:57;94313.66;;;15.24;100.00
11049;BME280;5577;42.706;23.160;2023-05-08T06:27:41;94323.78;;;15.48;100.00
11049;BME280;5577;42.706;23.160;2023-05-08T06:30:26;94315.22;;;15.79;100.00
11049;BME280;5577;42.706;23.160;2023-05-08T06:33:10;94324.13;;;16.11;100.00
11049;BME280;5577;42.706;23.160;2023-05-08T06:35:55;94326.94;;;16.43;100.00
11049;BME280;5577;42.706;23.160;2023-05-08T06:38:39;94327.22;;;16.24;100.00
11049;BME280;5577;42.706;23.160;2023-05-08T06:41:23;94331.44;;;16.32;100.00
11049;BME280;5577;42.706;23.160;2023-05-08T06:44:06;94323.53;;;16.49;100.00
11049;BME280;5577;42.706;23.160;2023-05-08T06:46:50;94324.31;;;16.64;100.00
11049;BME280;5577;42.706;23.160;2023-05-08T06:49:35;94325.13;;;16.78;100.00
11049;BME280;5577;42.706;23.160;2023-05-08T06:52:19;94329.34;;;16.90;100.00
11049;BME280;5577;42.706;23.160;2023-05-08T06:55:04;94331.28;;;17.03;100.00
11049;BME280;5577;42.706;23.160;2023-05-08T06:57:48;94327.81;;;17.31;100.00
11049;BME280;5577;42.706;23.160;2023-05-08T07:00:32;94338.19;;;17.47;100.00
11049;BME280;5577;42.706;23.160;2023-05-08T07:03:16;94317.16;;;17.42;100.00
11049;BME280;5577;42.706;23.160;2023-05-08T07:06:00;94339.31;;;17.42;100.00
11049;BME280;5577;42.706;23.160;2023-05-08T07:08:44;94332.03;;;17.74;100.00
11049;BME280;5577;42.706;23.160;2023-05-08T07:11:28;94333.53;;;17.79;100.00
11049;BME280;5577;42.706;23.160;2023-05-08T07:14:11;94325.09;;;17.94;100.00
11049;BME280;5577;42.706;23.160;2023-05-08T07:16:56;94326.22;;;18.04;100.00
11049;BME280;5577;42.706;23.160;2023-05-08T07:19:41;94323.47;;;18.28;100.00
11049;BME280;5577;42.706;23.160;2023-05-08T07:22:25;94331.47;;;18.39;99.97
11049;BME280;5577;42.706;23.160;2023-05-08T07:25:09;94323.72;;;18.58;100.00
11049;BME280;5577;42.706;23.160;2023-05-08T07:27:53;94327.09;;;18.76;97.23
11049;BME280;5577;42.706;23.160;2023-05-08T07:30:37;94331.56;;;18.93;91.19
11049;BME280;5577;42.706;23.160;2023-05-08T07:33:20;94329.06;;;18.58;95.29
11049;BME280;5577;42.706;23.160;2023-05-08T07:36:05;94343.28;;;18.55;97.10
11049;BME280;5577;42.706;23.160;2023-05-08T07:38:49;94329.94;;;18.41;95.24
11049;BME280;5577;42.706;23.160;2023-05-08T07:41:33;94339.09;;;18.51;94.71
11049;BME280;5577;42.706;23.160;2023-05-08T07:44:17;94347.94;;;18.30;93.77
11049;BME280;5577;42.706;23.160;2023-05-08T07:47:01;94341.06;;;18.29;98.57
11049;BME280;5577;42.706;23.160;2023-05-08T07:49:46;94346.38;;;18.43;98.91
11049;BME280;5577;42.706;23.160;2023-05-08T07:52:30;94325.16;;;18.77;94.72
11049;BME280;5577;42.706;23.160;2023-05-08T07:55:14;94344.06;;;19.17;88.34
11049;BME280;5577;42.706;23.160;2023-05-08T07:57:59;94341.91;;;19.49;87.20
11049;BME280;5577;42.706;23.160;2023-05-08T08:00:43;94340.00;;;19.91;85.48
11049;BME280;5577;42.706;23.160;2023-05-08T08:03:27;94340.69;;;20.39;82.08
11049;BME280;5577;42.706;23.160;2023-05-08T08:06:12;94344.03;;;20.76;79.83
11049;BME280;5577;42.706;23.160;2023-05-08T08:08:56;94338.50;;;20.87;76.87
11049;BME280;5577;42.706;23.160;2023-05-08T08:11:40;94342.19;;;21.00;73.88
11049;BME280;5577;42.706;23.160;2023-05-08T08:14:24;94335.88;;;21.13;75.09
11049;BME280;5577;42.706;23.160;2023-05-08T08:17:08;94339.72;;;21.12;74.54
11049;BME280;5577;42.706;23.160;2023-05-08T08:19:52;94344.38;;;21.08;72.74
11049;BME280;5577;42.706;23.160;2023-05-08T08:22:36;94330.78;;;20.62;75.92
11049;BME280;5577;42.706;23.160;2023-05-08T08:25:20;94332.66;;;20.65;77.76
11049;BME280;5577;42.706;23.160;2023-05-08T08:28:05;94318.59;;;20.54;79.78
11049;BME280;5577;42.706;23.160;2023-05-08T08:30:49;94327.44;;;20.81;79.93
11049;BME280;5577;42.706;23.160;2023-05-08T08:33:33;94324.66;;;20.88;79.32
11049;BME280;5577;42.706;23.160;2023-05-08T08:36:17;94313.75;;;21.25;76.77
11049;BME280;5577;42.706;23.160;2023-05-08T08:39:01;94308.84;;;21.20;76.51
11049;BME280;5577;42.706;23.160;2023-05-08T08:41:45;94309.59;;;20.94;76.96
11049;BME280;5577;42.706;23.160;2023-05-08T08:44:29;94312.31;;;20.64;80.38
11049;BME280;5577;42.706;23.160;2023-05-08T08:47:15;94302.75;;;20.60;82.25
11049;BME280;5577;42.706;23.160;2023-05-08T08:50:02;94296.88;;;20.68;84.79
11049;BME280;5577;42.706;23.160;2023-05-08T08:52:55;94296.41;;;20.73;84.99
11049;BME280;5577;42.706;23.160;2023-05-08T08:55:45;94294.00;;;20.52;85.53
11049;BME280;5577;42.706;23.160;2023-05-08T08:58:32;94290.78;;;20.64;89.39
11049;BME280;5577;42.706;23.160;2023-05-08T09:01:20;94286.00;;;20.49;83.57
11049;BME280;5577;42.706;23.160;2023-05-08T09:04:05;94252.13;;;19.91;88.58
11049;BME280;5577;42.706;23.160;2023-05-08T09:06:50;94248.72;;;19.87;92.59
11049;BME280;5577;42.706;23.160;2023-05-08T09:09:40;94238.59;;;19.98;91.30
11049;BME280;5577;42.706;23.160;2023-05-08T09:12:27;94242.09;;;20.29;84.99
11049;BME280;5577;42.706;23.160;2023-05-08T09:15:11;94251.06;;;20.45;77.55
11049;BME280;5577;42.706;23.160;2023-05-08T09:17:55;94275.28;;;20.45;76.91
11049;BME280;5577;42.706;23.160;2023-05-08T09:20:39;94280.00;;;20.94;80.08
11049;BME280;5577;42.706;23.160;2023-05-08T09:23:24;94285.25;;;21.28;72.67
11049;BME280;5577;42.706;23.160;2023-05-08T09:26:08;94276.97;;;21.61;74.85
11049;BME280;5577;42.706;23.160;2023-05-08T09:29:13;94282.97;;;21.49;78.20
11049;BME280;5577;42.706;23.160;2023-05-08T09:31:58;94276.53;;;21.66;79.19
11049;BME280;5577;42.706;23.160;2023-05-08T09:34:51;94274.25;;;21.65;77.92
11049;BME280;5577;42.706;23.160;2023-05-08T09:37:41;94280.22;;;21.76;79.55
11049;BME280;5577;42.706;23.160;2023-05-08T09:40:26;94284.03;;;21.78;74.61
11049;BME280;5577;42.706;23.160;2023-05-08T09:43:11;94276.81;;;21.49;77.40
11049;BME280;5577;42.706;23.160;2023-05-08T09:46:18;94282.38;;;21.61;75.25
11049;BME280;5577;42.706;23.160;2023-05-08T09:49:16;94278.41;;;21.69;75.00
11049;BME280;5577;42.706;23.160;2023-05-08T09:52:00;94269.59;;;21.65;78.13
11049;BME280;5577;42.706;23.160;2023-05-08T09:54:44;94276.13;;;21.68;76.54
11049;BME280;5577;42.706;23.160;2023-05-08T09:57:30;94275.72;;;21.46;77.27
11049;BME280;5577;42.706;23.160;2023-05-08T10:00:14;94263.75;;;21.47;77.98
11049;BME280;5577;42.706;23.160;2023-05-08T10:03:01;94268.06;;;21.64;77.54
11049;BME280;5577;42.706;23.160;2023-05-08T10:05:45;94255.44;;;22.04;77.34
11049;BME280;5577;42.706;23.160;2023-05-08T10:08:30;94265.66;;;22.12;72.91
11049;BME280;5577;42.706;23.160;2023-05-08T10:11:18;94247.41;;;22.20;73.24
11049;BME280;5577;42.706;23.160;2023-05-08T10:14:04;94258.69;;;22.15;71.91
11049;BME280;5577;42.706;23.160;2023-05-08T10:16:51;94271.53;;;21.88;73.43
11049;BME280;5577;42.706;23.160;2023-05-08T10:19:43;94244.34;;;22.37;73.66
11049;BME280;5577;42.706;23.160;2023-05-08T10:22:30;94235.94;;;22.71;71.17
11049;BME280;5577;42.706;23.160;2023-05-08T10:25:19;94248.41;;;22.45;70.31
11049;BME280;5577;42.706;23.160;2023-05-08T10:31:02;94244.50;;;22.50;72.13
11049;BME280;5577;42.706;23.160;2023-05-08T10:33:49;94236.94;;;23.57;67.84
11049;BME280;5577;42.706;23.160;2023-05-08T10:36:37;94241.00;;;24.63;62.36
11049;BME280;5577;42.706;23.160;2023-05-08T10:39:22;94244.34;;;25.43;59.75
11049;BME280;5577;42.706;23.160;2023-05-08T10:42:07;94240.63;;;26.39;53.84
11049;BME280;5577;42.706;23.160;2023-05-08T10:44:52;94235.72;;;28.10;50.83
11049;BME280;5577;42.706;23.160;2023-05-08T10:50:35;94232.66;;;27.05;47.56
11049;BME280;5577;42.706;23.160;2023-05-08T10:53:38;94233.72;;;25.82;50.43
11049;BME280;5577;42.706;23.160;2023-05-08T10:56:26;94229.28;;;25.76;49.69
11049;BME280;5577;42.706;23.160;2023-05-08T10:59:18;94220.25;;;26.34;49.47
11049;BME280;5577;42.706;23.160;2023-05-08T11:02:04;94219.84;;;28.09;47.54
11049;BME280;5577;42.706;23.160;2023-05-08T11:04:49;94211.97;;;28.38;43.42
11049;BME280;5577;42.706;23.160;2023-05-08T11:07:55;94198.16;;;30.91;40.30
11049;BME280;5577;42.706;23.160;2023-05-08T11:10:40;94183.88;;;30.82;40.08
11049;BME280;5577;42.706;23.160;2023-05-08T11:13:35;94192.41;;;31.58;37.96
11049;BME280;5577;42.706;23.160;2023-05-08T11:19:37;94184.97;;;31.59;35.84
11049;BME280;5577;42.706;23.160;2023-05-08T11:22:23;94176.53;;;29.91;38.74
11049;BME280;5577;42.706;23.160;2023-05-08T11:25:10;94132.94;;;29.21;38.76
11049;BME280;5577;42.706;23.160;2023-05-08T11:30:39;94165.97;;;33.34;34.13
11049;BME280;5577;42.706;23.160;2023-05-08T11:33:29;94176.13;;;33.70;31.96
11049;BME280;5577;42.706;23.160;2023-05-08T11:36:20;94161.63;;;32.86;33.15
11049;BME280;5577;42.706;23.160;2023-05-08T11:39:09;94164.00;;;32.73;33.48
11049;BME280;5577;42.706;23.160;2023-05-08T11:45:11;94158.78;;;29.49;37.89
11049;BME280;5577;42.706;23.160;2023-05-08T11:48:00;94143.22;;;32.92;33.56
11049;BME280;5577;42.706;23.160;2023-05-08T11:50:45;94129.47;;;31.58;33.75
11049;BME280;5577;42.706;23.160;2023-05-08T11:53:30;94139.81;;;29.92;37.04
11049;BME280;5577;42.706;23.160;2023-05-08T11:56:14;94142.59;;;28.15;38.66
11049;BME280;5577;42.706;23.160;2023-05-08T11:59:06;94140.31;;;26.66;41.34
11049;BME280;5577;42.706;23.160;2023-05-08T12:01:51;94142.25;;;25.61;43.06
11049;BME280;5577;42.706;23.160;2023-05-08T12:04:45;94092.16;;;23.44;46.04
11049;BME280;5577;42.706;23.160;2023-05-08T12:07:29;94139.69;;;25.58;44.60
11049;BME280;5577;42.706;23.160;2023-05-08T12:10:14;94137.75;;;24.99;44.38
11049;BME280;5577;42.706;23.160;2023-05-08T12:12:58;94130.66;;;24.42;46.19
11049;BME280;5577;42.706;23.160;2023-05-08T12:15:43;94126.97;;;24.11;49.12
11049;BME280;5577;42.706;23.160;2023-05-08T12:18:27;94094.00;;;23.88;48.36
11049;BME280;5577;42.706;23.160;2023-05-08T12:21:13;94129.81;;;23.92;49.32
11049;BME280;5577;42.706;23.160;2023-05-08T12:23:59;94131.06;;;24.16;48.79
11049;BME280;5577;42.706;23.160;2023-05-08T12:26:45;94102.47;;;25.58;45.25
11049;BME280;5577;42.706;23.160;2023-05-08T12:29:29;94116.78;;;25.25;46.29
11049;BME280;5577;42.706;23.160;2023-05-08T12:32:13;94110.38;;;24.97;46.21
11049;BME280;5577;42.706;23.160;2023-05-08T12:34:57;94093.59;;;25.24;47.17
11049;BME280;5577;42.706;23.160;2023-05-08T12:37:44;94110.88;;;25.04;47.14
11049;BME280;5577;42.706;23.160;2023-05-08T12:40:40;94029.16;;;24.00;47.84
11049;BME280;5577;42.706;23.160;2023-05-08T12:43:33;94118.94;;;24.20;48.29
11049;BME280;5577;42.706;23.160;2023-05-08T12:46:17;94113.66;;;24.17;47.99
11049;BME280;5577;42.706;23.160;2023-05-08T12:49:01;94098.63;;;24.28;48.91
11049;BME280;5577;42.706;23.160;2023-05-08T12:51:50;94103.00;;;27.15;44.72
11049;BME280;5577;42.706;23.160;2023-05-08T12:54:37;94105.50;;;31.13;38.19
11049;BME280;5577;42.706;23.160;2023-05-08T12:57:22;94109.69;;;32.40;34.81
11049;BME280;5577;42.706;23.160;2023-05-08T13:00:06;94115.19;;;29.25;38.74
11049;BME280;5577;42.706;23.160;2023-05-08T13:02:52;94055.41;;;26.35;43.92
11049;BME280;5577;42.706;23.160;2023-05-08T13:05:40;94097.09;;;25.67;47.50
11049;BME280;5577;42.706;23.160;2023-05-08T13:08:34;94103.09;;;24.94;48.51
11049;BME280;5577;42.706;23.160;2023-05-08T13:11:28;94107.47;;;24.29;50.24
11049;BME280;5577;42.706;23.160;2023-05-08T13:14:13;94113.22;;;23.36;54.23
11049;BME280;5577;42.706;23.160;2023-05-08T13:16:57;94115.47;;;22.93;57.17
11049;BME280;5577;42.706;23.160;2023-05-08T13:19:42;94014.72;;;21.87;59.86
11049;BME280;5577;42.706;23.160;2023-05-08T13:22:26;94125.91;;;22.43;60.57
11049;BME280;5577;42.706;23.160;2023-05-08T13:25:10;94126.03;;;22.20;61.73
11049;BME280;5577;42.706;23.160;2023-05-08T13:27:55;94133.78;;;21.82;65.38
11049;BME280;5577;42.706;23.160;2023-05-08T13:30:39;94137.16;;;21.67;67.79
11049;BME280;5577;42.706;23.160;2023-05-08T13:33:23;94147.34;;;21.79;68.81
11049;BME280;5577;42.706;23.160;2023-05-08T13:36:07;94139.97;;;21.60;68.51
11049;BME280;5577;42.706;23.160;2023-05-08T13:38:52;94143.38;;;21.64;72.08
11049;BME280;5577;42.706;23.160;2023-05-08T13:41:37;94147.66;;;21.42;71.76
11049;BME280;5577;42.706;23.160;2023-05-08T13:44:21;94154.88;;;21.25;75.04
11049;BME280;5577;42.706;23.160;2023-05-08T13:47:05;94161.50;;;20.75;80.23
11049;BME280;5577;42.706;23.160;2023-05-08T13:49:49;94154.44;;;20.35;84.81
11049;BME280;5577;42.706;23.160;2023-05-08T13:52:33;94170.28;;;20.26;85.92
11049;BME280;5577;42.706;23.160;2023-05-08T13:55:17;94172.13;;;20.02;85.51
11049;BME280;5577;42.706;23.160;2023-05-08T13:58:04;94180.06;;;19.83;87.18
11049;BME280;5577;42.706;23.160;2023-05-08T14:00:48;94176.06;;;19.64;87.19
11049;BME280;5577;42.706;23.160;2023-05-08T14:03:32;94124.03;;;19.14;90.11
11049;BME280;5577;42.706;23.160;2023-05-08T14:06:16;94179.41;;;19.38;92.13
11049;BME280;5577;42.706;23.160;2023-05-08T14:09:00;94186.31;;;19.39;95.31
11049;BME280;5577;42.706;23.160;2023-05-08T14:11:44;94191.59;;;19.46;96.40
11049;BME280;5577;42.706;23.160;2023-05-08T14:14:28;94184.38;;;19.39;100.00
11049;BME280;5577;42.706;23.160;2023-05-08T14:17:12;94186.69;;;19.37;100.00
11049;BME280;5577;42.706;23.160;2023-05-08T14:19:56;94193.91;;;19.44;100.00
11049;BME280;5577;42.706;23.160;2023-05-08T14:22:40;94189.25;;;19.48;100.00
11049;BME280;5577;42.706;23.160;2023-05-08T14:25:24;94185.59;;;19.35;100.00
11049;BME280;5577;42.706;23.160;2023-05-08T14:28:08;94204.72;;;19.37;100.00
11049;BME280;5577;42.706;23.160;2023-05-08T14:30:52;94219.81;;;19.20;100.00
11049;BME280;5577;42.706;23.160;2023-05-08T14:33:36;94225.06;;;18.87;100.00
11049;BME280;5577;42.706;23.160;2023-05-08T14:36:20;94230.41;;;18.36;100.00
11049;BME280;5577;42.706;23.160;2023-05-08T14:39:04;94220.22;;;18.03;100.00
11049;BME280;5577;42.706;23.160;2023-05-08T14:41:49;94230.97;;;17.89;100.00
11049;BME280;5577;42.706;23.160;2023-05-08T14:44:33;94216.50;;;17.79;100.00
11049;BME280;5577;42.706;23.160;2023-05-08T14:47:17;94237.53;;;17.77;100.00
11049;BME280;5577;42.706;23.160;2023-05-08T14:50:01;94236.06;;;17.55;100.00
11049;BME280;5577;42.706;23.160;2023-05-08T14:52:45;94229.19;;;17.54;100.00
11049;BME280;5577;42.706;23.160;2023-05-08T14:55:28;94238.75;;;17.48;100.00
11049;BME280;5577;42.706;23.160;2023-05-08T14:58:12;94251.38;;;17.48;100.00
11049;BME280;5577;42.706;23.160;2023-05-08T15:00:56;94246.78;;;17.38;100.00
11049;BME280;5577;42.706;23.160;2023-05-08T15:03:40;94242.19;;;17.31;100.00
11049;BME280;5577;42.706;23.160;2023-05-08T15:06:24;94254.06;;;17.30;100.00
11049;BME280;5577;42.706;23.160;2023-05-08T15:09:10;94258.28;;;17.13;100.00
11049;BME280;5577;42.706;23.160;2023-05-08T15:11:54;94252.94;;;16.96;100.00
11049;BME280;5577;42.706;23.160;2023-05-08T15:14:38;94259.81;;;16.83;100.00